Time;durP1;ratioP1;P1;durP2;ratioP2;P2;SDS_P1;SDS_P2;PMS_P1;PMS_P2;Temp;Humidity;BMP_temperature;BMP_pressure;BME280_temperature;BME280_humidity;BME280_pressure;Samples;Min_cycle;Max_cycle;Signal;HPM_P1;HPM_P2
2021/09/25 00:00:27;;;;;;;3.88;1.80;;;14.10;99.90;;;;;;5039723;28;20075;-82
2021/09/25 00:02:55;;;;;;;4.82;1.90;;;14.10;99.90;;;;;;5000871;28;20451;-83
2021/09/25 00:05:21;;;;;;;3.28;2.08;;;14.10;99.90;;;;;;5047577;28;20021;-83
2021/09/25 00:07:47;;;;;;;5.50;1.60;;;14.10;99.90;;;;;;5020208;28;20029;-83
2021/09/25 00:10:15;;;;;;;3.15;1.98;;;14.00;99.90;;;;;;5025043;28;20412;-83
2021/09/25 00:12:41;;;;;;;4.20;2.22;;;14.10;99.90;;;;;;5019506;28;20029;-82
2021/09/25 00:15:07;;;;;;;2.45;2.00;;;14.00;99.90;;;;;;5018103;28;20037;-83
2021/09/25 00:17:33;;;;;;;5.20;2.22;;;14.00;99.90;;;;;;5034001;28;20487;-83
2021/09/25 00:19:59;;;;;;;3.17;2.40;;;14.00;99.90;;;;;;5039162;28;20065;-83
2021/09/25 00:22:24;;;;;;;2.20;2.00;;;13.90;99.90;;;;;;5020236;28;20116;-83
2021/09/25 00:24:50;;;;;;;2.00;1.80;;;13.90;99.90;;;;;;5014388;28;20033;-84
2021/09/25 00:27:16;;;;;;;2.30;1.95;;;13.90;99.90;;;;;;5011620;28;20121;-83
2021/09/25 00:29:41;;;;;;;2.20;2.00;;;13.90;99.90;;;;;;5017902;28;20044;-83
2021/09/25 00:32:07;;;;;;;4.15;2.05;;;13.90;99.90;;;;;;5001981;28;20052;-82
2021/09/25 00:34:33;;;;;;;3.30;2.40;;;13.90;99.90;;;;;;5020262;28;20109;-83
2021/09/25 00:36:58;;;;;;;3.53;1.92;;;13.90;99.90;;;;;;4994652;28;20057;-83
2021/09/25 00:39:24;;;;;;;4.80;2.05;;;13.90;99.90;;;;;;4993864;28;20029;-83
2021/09/25 00:41:50;;;;;;;2.65;2.25;;;13.90;99.90;;;;;;5018916;28;20044;-83
2021/09/25 00:44:16;;;;;;;2.40;2.20;;;13.90;99.90;;;;;;5021319;28;20041;-83
2021/09/25 00:46:41;;;;;;;5.65;2.28;;;13.90;99.90;;;;;;5030777;28;20042;-82
2021/09/25 00:49:07;;;;;;;2.55;2.08;;;13.90;99.90;;;;;;5006449;28;21336;-84
2021/09/25 00:51:33;;;;;;;2.50;2.10;;;13.90;99.90;;;;;;5002033;28;20037;-84
2021/09/25 00:53:59;;;;;;;2.17;1.98;;;13.90;99.90;;;;;;4996939;28;20408;-83
2021/09/25 00:56:25;;;;;;;2.40;2.20;;;13.90;99.90;;;;;;5019361;28;20027;-83
2021/09/25 00:58:51;;;;;;;2.22;2.03;;;13.80;99.90;;;;;;5005918;28;20037;-83
2021/09/25 01:01:17;;;;;;;2.22;2.10;;;13.80;99.90;;;;;;5003600;28;20815;-83
2021/09/25 01:03:43;;;;;;;3.47;2.00;;;13.80;99.90;;;;;;5015235;28;20040;-83
2021/09/25 01:06:08;;;;;;;2.60;2.40;;;13.80;99.90;;;;;;5015407;28;20037;-83
2021/09/25 01:08:34;;;;;;;2.25;2.05;;;13.80;99.90;;;;;;5021723;28;20030;-82
2021/09/25 01:11:00;;;;;;;2.45;2.10;;;13.80;99.90;;;;;;5022455;28;20480;-84
2021/09/25 01:13:26;;;;;;;2.60;2.25;;;13.80;99.90;;;;;;5021588;28;20026;-83
2021/09/25 01:15:52;;;;;;;2.15;1.90;;;13.70;99.90;;;;;;5011789;28;20029;-83
2021/09/25 01:18:18;;;;;;;3.15;1.95;;;13.70;99.90;;;;;;5041152;28;20061;-83
2021/09/25 01:20:44;;;;;;;2.97;2.45;;;13.60;99.90;;;;;;5019623;28;20025;-83
2021/09/25 01:23:11;;;;;;;2.65;2.28;;;13.60;99.90;;;;;;5014423;28;20133;-82
2021/09/25 01:25:37;;;;;;;2.58;2.05;;;13.70;99.90;;;;;;5035831;28;20112;-83
2021/09/25 01:28:03;;;;;;;3.83;2.05;;;13.70;99.90;;;;;;5023550;28;20026;-83
2021/09/25 01:30:29;;;;;;;2.38;2.05;;;13.70;99.90;;;;;;5010693;28;20033;-82
2021/09/25 01:32:55;;;;;;;5.43;2.22;;;13.70;99.90;;;;;;5005117;28;20661;-83
2021/09/25 01:35:22;;;;;;;3.28;2.00;;;13.70;99.90;;;;;;4993133;28;20025;-82
2021/09/25 01:37:51;;;;;;;2.63;2.30;;;13.70;99.90;;;;;;5033793;28;20028;-83
2021/09/25 01:40:17;;;;;;;2.40;2.20;;;13.70;99.90;;;;;;5021257;28;20083;-83
2021/09/25 01:42:44;;;;;;;2.40;2.20;;;13.70;99.90;;;;;;4982918;28;20029;-83
2021/09/25 01:45:11;;;;;;;6.90;2.97;;;13.70;99.90;;;;;;5031079;28;20042;-82
2021/09/25 01:47:39;;;;;;;4.47;2.60;;;13.70;99.90;;;;;;4990223;28;20117;-83
2021/09/25 01:50:08;;;;;;;3.50;2.10;;;13.70;99.90;;;;;;5018514;28;20094;-83
2021/09/25 01:52:34;;;;;;;3.00;2.42;;;13.70;99.90;;;;;;5033722;28;20112;-83
2021/09/25 01:55:00;;;;;;;3.75;2.63;;;13.60;99.90;;;;;;4998973;28;20124;-82
2021/09/25 01:57:25;;;;;;;3.00;2.70;;;13.70;99.90;;;;;;5001249;28;20036;-82
2021/09/25 01:59:52;;;;;;;2.78;2.50;;;13.70;99.90;;;;;;5033942;28;20029;-84
2021/09/25 02:02:18;;;;;;;4.55;2.30;;;13.70;99.90;;;;;;5024689;28;20563;-83
2021/09/25 02:04:47;;;;;;;3.17;2.60;;;13.70;99.90;;;;;;5015724;28;20124;-82
2021/09/25 02:07:18;;;;;;;3.50;2.53;;;13.70;99.90;;;;;;5015094;28;20125;-83
2021/09/25 02:09:45;;;;;;;3.63;2.38;;;13.70;99.90;;;;;;5019012;28;20034;-83
2021/09/25 02:12:11;;;;;;;2.53;2.33;;;13.70;99.90;;;;;;5032435;28;20068;-83
2021/09/25 02:14:38;;;;;;;3.90;2.85;;;13.70;99.90;;;;;;5002785;28;20056;-83
2021/09/25 02:17:05;;;;;;;4.45;2.60;;;13.70;99.90;;;;;;5038234;28;20479;-83
2021/09/25 02:19:30;;;;;;;3.13;2.78;;;13.80;99.90;;;;;;5034194;28;20033;-82
2021/09/25 02:21:56;;;;;;;3.13;2.70;;;13.80;99.90;;;;;;5018586;28;20087;-83
2021/09/25 02:24:24;;;;;;;2.95;2.33;;;13.80;99.90;;;;;;4999978;28;20030;-84
2021/09/25 02:26:50;;;;;;;3.65;2.50;;;13.80;99.90;;;;;;5019912;28;20029;-84
2021/09/25 02:29:15;;;;;;;2.50;2.30;;;13.80;99.90;;;;;;5010782;28;20038;-83
2021/09/25 02:31:41;;;;;;;3.30;2.53;;;13.80;99.90;;;;;;5002518;28;20034;-83
2021/09/25 02:34:07;;;;;;;2.67;2.42;;;13.80;99.90;;;;;;5011979;28;20032;-82
2021/09/25 02:36:33;;;;;;;3.55;2.47;;;13.90;99.90;;;;;;5018811;28;20032;-84
2021/09/25 02:38:59;;;;;;;3.28;2.65;;;13.90;99.90;;;;;;5013416;28;20037;-84
2021/09/25 02:41:25;;;;;;;2.75;2.55;;;13.80;99.90;;;;;;5025434;28;20649;-83
2021/09/25 02:43:51;;;;;;;3.50;2.67;;;13.80;99.90;;;;;;5008487;28;20121;-84
2021/09/25 02:46:16;;;;;;;6.03;2.90;;;13.80;99.90;;;;;;5012515;28;20124;-83
2021/09/25 02:48:42;;;;;;;3.53;3.22;;;13.80;99.90;;;;;;4996875;28;20064;-83
2021/09/25 02:51:08;;;;;;;3.10;2.55;;;13.80;99.90;;;;;;5030442;28;20033;-83
2021/09/25 02:53:33;;;;;;;3.80;2.88;;;13.80;99.90;;;;;;5021244;28;20056;-83
2021/09/25 02:55:59;;;;;;;3.53;3.22;;;13.90;99.90;;;;;;5003477;28;20033;-84
2021/09/25 02:58:25;;;;;;;3.75;3.28;;;13.80;99.90;;;;;;5021110;28;20026;-83
2021/09/25 03:00:50;;;;;;;4.55;2.90;;;13.90;99.90;;;;;;5007314;28;20495;-83
2021/09/25 03:03:16;;;;;;;3.10;2.53;;;13.80;99.90;;;;;;5006422;28;20038;-83
2021/09/25 03:05:42;;;;;;;4.53;3.42;;;13.80;99.90;;;;;;5024893;28;20040;-82
2021/09/25 03:08:07;;;;;;;3.83;3.25;;;13.70;99.90;;;;;;5024204;28;20060;-83
2021/09/25 03:10:33;;;;;;;5.25;3.00;;;13.70;99.90;;;;;;4991847;28;20179;-83
2021/09/25 03:12:59;;;;;;;5.20;3.60;;;13.70;99.90;;;;;;5041858;28;20060;-83
2021/09/25 03:15:25;;;;;;;5.57;3.90;;;13.60;99.90;;;;;;4985041;28;20033;-83
2021/09/25 03:17:50;;;;;;;5.97;3.88;;;13.60;99.90;;;;;;5035922;28;20033;-83
2021/09/25 03:20:17;;;;;;;5.10;3.63;;;13.60;99.90;;;;;;5022700;28;20034;-81
2021/09/25 03:22:42;;;;;;;7.30;3.50;;;13.50;99.90;;;;;;5029739;28;20021;-84
2021/09/25 03:25:09;;;;;;;5.18;3.47;;;13.40;99.90;;;;;;4998719;28;20381;-82
2021/09/25 03:27:37;;;;;;;6.03;3.90;;;13.40;99.90;;;;;;5012558;28;20040;-83
2021/09/25 03:30:05;;;;;;;4.32;3.63;;;13.30;99.90;;;;;;5020572;28;20026;-82
2021/09/25 03:32:30;;;;;;;6.30;4.00;;;13.30;99.90;;;;;;5035739;28;20046;-82
2021/09/25 03:34:56;;;;;;;4.55;3.80;;;13.20;99.90;;;;;;5014916;28;20465;-84
2021/09/25 03:37:22;;;;;;;4.93;4.00;;;13.10;99.90;;;;;;5011331;28;20033;-83
2021/09/25 03:39:48;;;;;;;4.63;3.78;;;13.10;99.90;;;;;;5007660;28;20057;-83
2021/09/25 03:42:13;;;;;;;6.88;4.03;;;13.10;99.90;;;;;;5013240;28;20033;-83
2021/09/25 03:44:39;;;;;;;5.43;4.13;;;13.00;99.90;;;;;;5004633;28;20423;-83
2021/09/25 03:47:05;;;;;;;6.47;4.10;;;13.00;99.90;;;;;;5022357;28;20096;-83
2021/09/25 03:49:30;;;;;;;6.70;4.05;;;12.90;99.90;;;;;;5010505;28;20086;-84
2021/09/25 03:51:56;;;;;;;4.95;4.13;;;12.90;99.90;;;;;;5000204;28;20033;-83
2021/09/25 03:54:22;;;;;;;5.35;4.28;;;12.90;99.90;;;;;;5003099;28;20124;-84
2021/09/25 03:56:48;;;;;;;6.15;3.47;;;12.90;99.90;;;;;;5008727;28;20026;-83
2021/09/25 03:59:13;;;;;;;4.80;3.63;;;12.80;99.90;;;;;;5016801;28;20037;-83
2021/09/25 04:01:39;;;;;;;4.05;3.40;;;12.70;99.90;;;;;;5000338;28;20124;-83
2021/09/25 04:04:05;;;;;;;3.70;3.22;;;12.70;99.90;;;;;;4979448;28;20053;-83
2021/09/25 04:06:30;;;;;;;5.53;3.92;;;12.70;99.90;;;;;;5000532;28;20172;-84
2021/09/25 04:08:56;;;;;;;5.20;3.75;;;12.60;99.90;;;;;;5011130;28;20038;-83
2021/09/25 04:11:22;;;;;;;7.07;4.15;;;12.60;99.90;;;;;;5030264;28;20028;-83
2021/09/25 04:13:48;;;;;;;4.85;3.65;;;12.60;99.90;;;;;;5011183;28;20032;-82
2021/09/25 04:16:14;;;;;;;7.32;3.92;;;12.50;99.90;;;;;;5009661;28;20080;-83
2021/09/25 04:18:39;;;;;;;4.72;4.05;;;12.50;99.90;;;;;;5009397;28;20026;-84
2021/09/25 04:21:05;;;;;;;4.90;3.50;;;12.50;99.90;;;;;;5019589;28;20539;-83
2021/09/25 04:23:31;;;;;;;4.53;3.53;;;12.40;99.90;;;;;;5030227;28;20029;-83
2021/09/25 04:25:56;;;;;;;5.38;3.45;;;12.30;99.90;;;;;;5030618;28;20061;-83
2021/09/25 04:28:22;;;;;;;3.78;3.42;;;12.30;99.90;;;;;;5014177;28;20480;-83
2021/09/25 04:30:50;;;;;;;4.57;3.30;;;12.30;99.90;;;;;;5019105;28;20038;-84
2021/09/25 04:33:16;;;;;;;4.95;3.65;;;12.30;99.90;;;;;;5025322;28;20029;-84
2021/09/25 04:35:41;;;;;;;6.53;4.05;;;12.30;99.90;;;;;;5013987;28;20382;-82
2021/09/25 04:38:07;;;;;;;8.57;4.00;;;12.20;99.90;;;;;;5033378;28;20041;-83
2021/09/25 04:40:33;;;;;;;5.25;4.10;;;12.20;99.90;;;;;;5033882;28;20021;-83
2021/09/25 04:43:03;;;;;;;6.45;3.97;;;12.20;99.90;;;;;;5010783;28;20061;-84
2021/09/25 04:45:29;;;;;;;5.78;4.10;;;12.20;99.90;;;;;;4992438;28;20608;-82
2021/09/25 04:47:55;;;;;;;5.10;3.80;;;12.20;99.90;;;;;;5029259;28;20389;-83
2021/09/25 04:50:22;;;;;;;4.53;3.67;;;12.20;99.90;;;;;;5013340;28;20156;-82
2021/09/25 04:52:48;;;;;;;4.82;3.67;;;12.20;99.90;;;;;;5015077;28;20112;-83
2021/09/25 04:55:14;;;;;;;4.13;3.70;;;12.20;99.90;;;;;;5018984;28;20157;-83
2021/09/25 04:57:40;;;;;;;6.30;3.58;;;12.20;99.90;;;;;;5030026;28;20503;-83
2021/09/25 05:00:07;;;;;;;4.47;3.70;;;12.20;99.90;;;;;;5013701;28;20045;-83
2021/09/25 05:02:33;;;;;;;4.50;3.30;;;12.20;99.90;;;;;;4995981;28;20037;-83
2021/09/25 05:04:59;;;;;;;5.07;3.60;;;12.20;99.90;;;;;;5024444;28;20076;-82
2021/09/25 05:07:25;;;;;;;3.97;3.58;;;12.20;99.90;;;;;;5007856;28;20042;-86
2021/09/25 05:09:50;;;;;;;6.60;3.53;;;12.20;99.90;;;;;;5021899;28;20040;-83
2021/09/25 05:12:16;;;;;;;5.82;3.75;;;12.20;99.90;;;;;;5036004;28;20075;-83
2021/09/25 05:14:42;;;;;;;5.03;3.67;;;12.10;99.90;;;;;;5005829;28;20559;-83
2021/09/25 05:17:08;;;;;;;5.10;3.75;;;12.10;99.90;;;;;;5011580;28;20040;-82
2021/09/25 05:19:34;;;;;;;4.85;3.72;;;12.10;99.90;;;;;;5035333;28;20553;-83
2021/09/25 05:22:00;;;;;;;5.93;4.03;;;12.00;99.90;;;;;;4998579;28;20037;-84
2021/09/25 05:24:26;;;;;;;5.47;4.03;;;12.00;99.90;;;;;;5031361;28;20033;-85
2021/09/25 05:26:52;;;;;;;6.18;3.88;;;12.00;99.90;;;;;;5020606;28;20025;-83
2021/09/25 05:29:18;;;;;;;4.53;3.42;;;12.00;99.90;;;;;;5031944;28;20034;-83
2021/09/25 05:31:44;;;;;;;4.10;3.20;;;12.00;99.90;;;;;;5002119;28;20483;-83
2021/09/25 05:34:10;;;;;;;6.60;3.78;;;12.00;99.90;;;;;;5033546;28;20120;-83
2021/09/25 05:36:36;;;;;;;4.55;3.65;;;12.00;99.90;;;;;;5025331;28;20420;-83
2021/09/25 05:39:03;;;;;;;5.75;3.83;;;12.00;99.90;;;;;;4999489;28;20037;-84
2021/09/25 05:41:29;;;;;;;5.72;4.15;;;12.00;99.90;;;;;;5017283;28;20179;-83
2021/09/25 05:43:55;;;;;;;3.83;3.42;;;12.00;99.90;;;;;;5019280;28;20125;-83
2021/09/25 05:46:22;;;;;;;4.25;3.65;;;12.10;99.90;;;;;;5016890;28;20044;-84
2021/09/25 05:48:51;;;;;;;5.18;3.85;;;12.10;99.90;;;;;;5013034;28;20029;-83
2021/09/25 05:51:17;;;;;;;3.80;3.45;;;12.10;99.90;;;;;;5003803;28;20030;-85
2021/09/25 05:53:43;;;;;;;5.93;5.28;;;12.20;99.90;;;;;;5000903;28;20029;-84
2021/09/25 05:56:08;;;;;;;6.82;4.80;;;12.30;99.90;;;;;;4998891;28;20455;-82
2021/09/25 05:58:34;;;;;;;5.85;4.90;;;12.30;99.90;;;;;;5028836;28;20033;-82
2021/09/25 06:01:00;;;;;;;8.68;5.15;;;12.30;99.90;;;;;;5018421;28;20121;-82
2021/09/25 06:03:25;;;;;;;9.20;4.97;;;12.30;99.90;;;;;;5011826;28;20053;-82
2021/09/25 06:05:51;;;;;;;5.90;4.90;;;12.30;99.90;;;;;;5025693;28;20030;-85
2021/09/25 06:08:17;;;;;;;7.47;6.13;;;12.30;99.90;;;;;;5012003;28;20057;-82
2021/09/25 06:10:43;;;;;;;8.63;4.78;;;12.40;99.90;;;;;;5027139;28;20415;-82
2021/09/25 06:13:10;;;;;;;8.77;5.68;;;12.60;99.90;;;;;;5032765;28;20034;-82
2021/09/25 06:15:36;;;;;;;6.57;5.53;;;12.70;99.90;;;;;;5013797;28;20153;-85
2021/09/25 06:18:03;;;;;;;6.45;4.93;;;12.90;99.90;;;;;;5016600;28;20030;-82
2021/09/25 06:20:29;;;;;;;6.47;4.75;;;13.20;99.90;;;;;;5002420;28;20081;-83
2021/09/25 06:22:56;;;;;;;7.13;5.68;;;13.40;99.90;;;;;;5038848;28;20041;-83
2021/09/25 06:25:21;;;;;;;6.43;4.88;;;13.70;99.90;;;;;;5028444;28;20033;-82
2021/09/25 06:27:47;;;;;;;9.80;5.75;;;13.90;99.90;;;;;;5008144;28;20506;-83
2021/09/25 06:30:13;;;;;;;7.22;4.97;;;14.20;99.90;;;;;;5002807;28;20033;-82
2021/09/25 06:32:39;;;;;;;7.38;4.68;;;14.40;99.90;;;;;;5022450;28;20111;-83
2021/09/25 06:35:06;;;;;;;7.45;5.32;;;14.60;99.90;;;;;;5022766;28;20121;-83
2021/09/25 06:37:32;;;;;;;6.22;4.88;;;14.90;99.90;;;;;;5024212;28;20028;-83
2021/09/25 06:39:58;;;;;;;5.57;4.70;;;15.20;99.90;;;;;;5038156;28;20033;-83
2021/09/25 06:42:24;;;;;;;5.70;4.28;;;15.50;99.90;;;;;;5022133;28;20032;-86
2021/09/25 06:44:49;;;;;;;5.38;4.70;;;15.80;99.90;;;;;;5014802;28;20037;-83
2021/09/25 06:47:15;;;;;;;7.75;5.45;;;16.00;99.90;;;;;;5013513;28;20049;-84
2021/09/25 06:49:41;;;;;;;5.30;4.80;;;16.20;99.90;;;;;;5024367;28;20041;-85
2021/09/25 06:52:07;;;;;;;7.03;5.10;;;16.30;99.90;;;;;;5014081;28;20034;-84
2021/09/25 06:54:34;;;;;;;6.93;4.72;;;16.60;99.90;;;;;;5025522;28;20611;-84
2021/09/25 06:57:01;;;;;;;6.40;5.30;;;16.80;99.90;;;;;;5007406;28;20043;-83
2021/09/25 06:59:27;;;;;;;6.57;5.40;;;16.90;99.90;;;;;;5003779;28;20430;-85
2021/09/25 07:01:53;;;;;;;6.70;4.95;;;17.10;99.90;;;;;;5035621;28;20061;-85
2021/09/25 07:04:18;;;;;;;9.07;5.13;;;17.40;99.90;;;;;;4992129;28;20087;-83
2021/09/25 07:06:44;;;;;;;8.25;5.60;;;17.60;99.90;;;;;;5026966;28;20640;-84
2021/09/25 07:09:10;;;;;;;6.38;4.90;;;17.70;99.90;;;;;;5024323;28;20063;-84
2021/09/25 07:11:36;;;;;;;5.90;4.40;;;17.70;99.90;;;;;;5032083;28;20037;-83
2021/09/25 07:14:03;;;;;;;6.00;4.72;;;17.50;99.90;;;;;;5033357;28;20108;-84
2021/09/25 07:16:28;;;;;;;5.45;4.30;;;17.60;99.90;;;;;;4996864;28;20034;-83
2021/09/25 07:18:54;;;;;;;6.20;5.00;;;17.90;99.90;;;;;;5043243;28;20115;-84
2021/09/25 07:21:20;;;;;;;8.77;5.43;;;18.20;99.90;;;;;;5015940;28;20061;-83
2021/09/25 07:23:46;;;;;;;7.65;5.80;;;18.30;99.90;;;;;;5022671;28;20026;-84
2021/09/25 07:26:12;;;;;;;8.18;5.07;;;17.80;99.90;;;;;;4996917;28;20584;-84
2021/09/25 07:28:37;;;;;;;10.35;6.05;;;18.10;99.90;;;;;;5000502;28;20411;-83
2021/09/25 07:31:05;;;;;;;7.55;5.80;;;17.80;99.90;;;;;;4998677;28;20116;-84
2021/09/25 07:33:31;;;;;;;8.30;5.03;;;17.90;99.90;;;;;;5035040;28;20060;-83
2021/09/25 07:35:58;;;;;;;8.68;5.90;;;17.90;99.90;;;;;;5029229;28;20030;-83
2021/09/25 07:38:24;;;;;;;9.48;5.95;;;18.10;99.90;;;;;;5026416;28;20029;-84
2021/09/25 07:40:52;;;;;;;6.72;5.60;;;18.30;99.90;;;;;;5015947;28;20041;-84
2021/09/25 07:43:18;;;;;;;9.68;6.03;;;18.30;99.90;;;;;;5009433;28;20508;-83
2021/09/25 07:45:44;;;;;;;9.95;6.38;;;17.90;99.90;;;;;;5026780;28;20030;-85
2021/09/25 07:48:10;;;;;;;8.35;5.70;;;17.60;99.90;;;;;;5010169;28;20056;-86
2021/09/25 07:50:35;;;;;;;9.68;6.20;;;17.30;99.90;;;;;;5024410;28;20038;-83
2021/09/25 07:53:01;;;;;;;9.43;5.55;;;17.30;99.90;;;;;;5014215;28;20377;-83
2021/09/25 07:55:27;;;;;;;10.63;6.15;;;17.50;99.90;;;;;;5032122;28;20087;-84
2021/09/25 07:57:53;;;;;;;8.45;5.65;;;17.70;99.90;;;;;;5016224;28;20022;-84
2021/09/25 08:00:19;;;;;;;11.25;6.13;;;17.80;99.90;;;;;;5008302;28;20041;-84
2021/09/25 08:02:45;;;;;;;9.15;5.80;;;17.90;99.90;;;;;;4997095;28;20048;-85
2021/09/25 08:05:12;;;;;;;6.47;5.78;;;18.00;99.90;;;;;;5013364;28;20046;-84
2021/09/25 08:07:38;;;;;;;8.95;5.75;;;18.00;99.90;;;;;;5003930;28;20099;-83
2021/09/25 08:10:06;;;;;;;7.30;5.45;;;18.20;99.90;;;;;;5040738;28;20095;-83
2021/09/25 08:12:32;;;;;;;6.97;4.47;;;18.30;99.90;;;;;;4998987;28;20458;-83
2021/09/25 08:14:59;;;;;;;8.52;5.05;;;18.30;99.90;;;;;;5025657;28;20030;-83
2021/09/25 08:17:25;;;;;;;7.57;4.45;;;18.50;99.90;;;;;;5028131;28;20021;-83
2021/09/25 08:19:51;;;;;;;4.30;3.13;;;18.60;99.90;;;;;;5021579;28;20025;-83
2021/09/25 08:22:17;;;;;;;4.13;3.45;;;18.70;99.90;;;;;;5001855;28;20699;-83
2021/09/25 08:24:43;;;;;;;4.43;3.35;;;18.70;99.90;;;;;;5040168;28;20060;-83
2021/09/25 08:27:10;;;;;;;3.83;2.78;;;18.70;99.90;;;;;;5013112;28;20107;-83
2021/09/25 08:29:36;;;;;;;3.92;2.95;;;18.60;99.90;;;;;;5038158;28;20175;-83
2021/09/25 08:32:02;;;;;;;2.65;2.30;;;18.60;99.90;;;;;;5026191;28;20539;-83
2021/09/25 08:34:28;;;;;;;3.15;2.80;;;18.60;99.90;;;;;;5026162;28;20025;-83
2021/09/25 08:36:54;;;;;;;4.35;3.00;;;18.40;99.90;;;;;;5030243;28;20025;-83
2021/09/25 08:39:20;;;;;;;4.90;3.75;;;18.30;99.90;;;;;;5042688;28;20033;-84
2021/09/25 08:41:46;;;;;;;4.88;3.50;;;18.30;99.90;;;;;;5042277;28;20035;-83
2021/09/25 08:44:12;;;;;;;4.30;3.03;;;18.30;99.90;;;;;;5030539;28;20119;-84
2021/09/25 08:46:38;;;;;;;3.03;2.67;;;18.30;99.90;;;;;;5011320;28;20089;-83
2021/09/25 08:49:05;;;;;;;4.38;2.88;;;18.20;99.90;;;;;;5024918;28;20033;-83
2021/09/25 08:51:31;;;;;;;3.22;2.92;;;18.20;99.90;;;;;;5016567;28;20037;-83
2021/09/25 08:53:57;;;;;;;3.70;3.10;;;18.20;99.90;;;;;;5002954;28;20048;-84
2021/09/25 08:56:23;;;;;;;5.15;3.10;;;18.20;99.90;;;;;;5024023;28;20574;-84
2021/09/25 08:58:49;;;;;;;3.25;2.70;;;18.20;99.90;;;;;;5021679;28;20034;-85
2021/09/25 09:01:20;;;;;;;4.18;3.10;;;18.20;99.90;;;;;;5018369;28;20064;-84
2021/09/25 09:03:48;;;;;;;4.47;3.53;;;18.10;99.90;;;;;;5013892;28;20422;-86
2021/09/25 09:06:47;;;;;;;5.03;3.92;;;18.20;99.90;;;;;;5015488;28;20064;-83
2021/09/25 09:09:13;;;;;;;5.28;2.83;;;18.10;99.90;;;;;;4974226;28;20046;-85
2021/09/25 09:11:46;;;;;;;8.40;3.17;;;18.10;99.90;;;;;;5015029;28;20029;-84
2021/09/25 09:14:16;;;;;;;4.45;3.53;;;18.10;99.90;;;;;;5026392;28;20037;-83
2021/09/25 09:16:54;;;;;;;4.75;3.58;;;18.10;99.90;;;;;;5027600;28;20029;-84
2021/09/25 09:19:20;;;;;;;4.13;3.28;;;18.20;99.90;;;;;;5015456;28;20086;-83
2021/09/25 09:21:49;;;;;;;5.65;4.00;;;18.10;99.90;;;;;;5016237;28;20029;-84
2021/09/25 09:24:16;;;;;;;5.07;4.07;;;18.20;99.90;;;;;;4994138;28;20026;-86
2021/09/25 09:26:42;;;;;;;6.47;4.55;;;18.20;99.90;;;;;;5025106;28;20121;-84
2021/09/25 09:29:09;;;;;;;7.07;4.45;;;18.20;99.90;;;;;;5005366;28;20473;-87
2021/09/25 09:31:36;;;;;;;5.88;3.70;;;18.30;99.90;;;;;;5010928;28;20053;-83
2021/09/25 09:34:04;;;;;;;6.13;3.60;;;18.30;99.90;;;;;;5009364;28;20072;-83
2021/09/25 09:36:33;;;;;;;4.43;3.83;;;18.30;99.90;;;;;;4994621;28;20063;-85
2021/09/25 09:39:20;;;;;;;8.80;4.35;;;18.40;99.90;;;;;;5018561;28;20101;-83
2021/09/25 09:41:55;;;;;;;6.60;4.38;;;18.40;99.90;;;;;;5020704;28;20029;-87
2021/09/25 09:44:26;;;;;;;4.63;3.75;;;18.40;99.90;;;;;;5034185;28;20033;-85
2021/09/25 09:47:01;;;;;;;6.20;4.18;;;18.50;99.90;;;;;;5026384;28;20064;-84
2021/09/25 09:49:38;;;;;;;4.70;3.92;;;18.50;99.90;;;;;;5024135;28;20052;-84
2021/09/25 09:52:13;;;;;;;6.65;4.22;;;18.60;99.90;;;;;;5008475;28;21410;-84
2021/09/25 09:54:41;;;;;;;17.95;4.45;;;18.60;99.90;;;;;;5011349;28;20025;-83
2021/09/25 09:57:10;;;;;;;5.65;4.30;;;18.60;99.90;;;;;;5009412;28;20030;-83
2021/09/25 09:59:38;;;;;;;5.55;4.28;;;18.60;99.90;;;;;;5008302;28;20030;-84
2021/09/25 10:02:04;;;;;;;5.82;3.88;;;18.60;99.90;;;;;;5003698;28;20562;-83
2021/09/25 10:04:30;;;;;;;5.10;4.13;;;18.70;99.90;;;;;;5028976;28;20037;-84
2021/09/25 10:06:57;;;;;;;4.90;3.47;;;18.70;99.90;;;;;;5017646;28;20037;-84
2021/09/25 10:09:26;;;;;;;6.05;4.40;;;18.70;99.90;;;;;;5028365;28;20033;-84
2021/09/25 10:11:55;;;;;;;10.75;4.50;;;18.80;99.90;;;;;;4996495;28;20040;-83
2021/09/25 10:14:23;;;;;;;5.25;4.13;;;18.80;99.90;;;;;;5019670;28;20028;-83
2021/09/25 10:16:49;;;;;;;5.88;3.60;;;18.90;99.90;;;;;;5031392;28;20021;-84
2021/09/25 10:19:22;;;;;;;9.00;4.60;;;18.90;99.90;;;;;;5031584;28;20041;-84
2021/09/25 10:21:52;;;;;;;7.70;4.72;;;19.00;99.90;;;;;;4999215;28;20033;-83
2021/09/25 10:24:24;;;;;;;5.50;4.07;;;19.00;99.90;;;;;;5025848;28;20484;-83
2021/09/25 10:26:50;;;;;;;4.75;3.88;;;19.00;99.90;;;;;;5015072;28;20041;-83
2021/09/25 10:29:22;;;;;;;5.47;3.75;;;19.10;99.90;;;;;;5038694;28;20025;-83
2021/09/25 10:31:48;;;;;;;5.13;4.10;;;19.20;99.90;;;;;;5005881;28;20080;-86
2021/09/25 10:34:26;;;;;;;7.00;4.20;;;19.30;99.90;;;;;;5032158;28;20108;-83
2021/09/25 10:36:56;;;;;;;7.63;4.38;;;19.30;99.90;;;;;;5025242;28;20045;-83
2021/09/25 10:39:28;;;;;;;4.43;3.60;;;19.40;99.90;;;;;;5019213;28;20029;-83
2021/09/25 10:42:15;;;;;;;3.67;3.28;;;19.40;99.90;;;;;;5041554;28;20446;-84
2021/09/25 10:44:52;;;;;;;4.15;3.33;;;19.40;99.90;;;;;;5009313;28;20502;-83
2021/09/25 10:47:20;;;;;;;5.47;3.90;;;19.50;99.90;;;;;;5020619;28;20511;-83
2021/09/25 10:49:55;;;;;;;3.53;2.90;;;19.50;99.90;;;;;;5036873;28;20029;-84
2021/09/25 10:52:51;;;;;;;3.50;3.13;;;19.50;99.90;;;;;;5028231;28;20032;-83
2021/09/25 10:55:19;;;;;;;9.07;3.28;;;19.60;99.90;;;;;;5008495;28;20048;-83
2021/09/25 10:58:12;;;;;;;5.63;3.75;;;19.50;99.90;;;;;;5008805;28;20037;-82
2021/09/25 11:00:47;;;;;;;4.68;3.67;;;19.50;99.90;;;;;;5010377;28;20053;-84
2021/09/25 11:03:42;;;;;;;3.78;3.30;;;19.50;99.90;;;;;;5024562;28;20424;-86
2021/09/25 11:06:09;;;;;;;5.43;3.13;;;19.50;99.90;;;;;;5011354;28;20233;-83
2021/09/25 11:08:36;;;;;;;4.65;3.50;;;19.50;99.90;;;;;;5037170;28;20038;-85
2021/09/25 11:11:12;;;;;;;6.18;3.30;;;19.50;99.90;;;;;;5043374;28;20037;-83
2021/09/25 11:14:08;;;;;;;4.53;3.20;;;19.50;99.90;;;;;;5006130;28;20025;-83
2021/09/25 11:16:48;;;;;;;5.30;3.10;;;19.60;99.90;;;;;;5031821;28;20589;-83
2021/09/25 11:19:26;;;;;;;4.05;3.50;;;19.60;99.90;;;;;;5028314;28;20041;-83
2021/09/25 11:22:03;;;;;;;5.07;3.17;;;19.60;99.90;;;;;;5023059;28;20450;-84
2021/09/25 11:24:38;;;;;;;4.68;3.38;;;19.60;99.90;;;;;;5010509;28;20025;-84
2021/09/25 11:27:27;;;;;;;4.57;3.15;;;19.80;99.90;;;;;;5033919;28;20065;-84
2021/09/25 11:29:56;;;;;;;3.70;3.13;;;19.80;99.90;;;;;;5024198;28;20037;-83
2021/09/25 11:32:30;;;;;;;4.60;3.20;;;19.90;99.90;;;;;;5015519;28;20028;-83
2021/09/25 11:34:57;;;;;;;6.43;3.33;;;20.00;99.90;;;;;;5013515;28;20586;-83
2021/09/25 11:37:23;;;;;;;3.25;2.75;;;20.10;99.90;;;;;;5014348;28;20121;-83
2021/09/25 11:39:50;;;;;;;4.35;2.90;;;20.20;99.90;;;;;;5023581;28;20025;-83
2021/09/25 11:42:21;;;;;;;3.88;3.38;;;20.30;99.90;;;;;;4999290;28;20542;-83
2021/09/25 11:44:50;;;;;;;3.15;2.80;;;20.30;99.90;;;;;;5012202;28;20052;-85
2021/09/25 11:47:22;;;;;;;3.63;3.08;;;20.40;99.90;;;;;;5012619;28;20069;-84
2021/09/25 11:49:48;;;;;;;5.43;3.42;;;20.50;99.90;;;;;;5038643;28;20109;-84
2021/09/25 11:52:13;;;;;;;5.80;3.35;;;20.60;99.90;;;;;;4992045;28;20033;-83
2021/09/25 11:54:40;;;;;;;3.65;2.67;;;20.80;99.90;;;;;;5025803;28;20717;-85
2021/09/25 11:57:18;;;;;;;3.72;2.63;;;20.80;99.90;;;;;;5011394;28;20030;-84
2021/09/25 11:59:44;;;;;;;3.88;2.70;;;20.80;99.90;;;;;;5014934;28;20649;-85
2021/09/25 12:02:10;;;;;;;3.95;3.00;;;20.90;99.90;;;;;;5043678;28;20659;-82
2021/09/25 12:04:41;;;;;;;2.60;2.40;;;21.00;99.90;;;;;;5006915;28;20030;-83
2021/09/25 12:07:07;;;;;;;3.17;2.60;;;21.10;99.90;;;;;;5033280;28;20028;-84
2021/09/25 12:09:45;;;;;;;4.20;2.60;;;21.30;99.90;;;;;;5011466;28;20217;-83
2021/09/25 12:12:11;;;;;;;3.08;2.75;;;21.40;99.90;;;;;;5023892;28;20033;-84
2021/09/25 12:14:46;;;;;;;2.65;2.45;;;21.50;99.90;;;;;;5008891;28;20583;-84
2021/09/25 12:17:15;;;;;;;2.60;2.40;;;21.60;99.90;;;;;;5007070;28;20029;-84
2021/09/25 12:19:46;;;;;;;2.70;2.47;;;21.60;99.90;;;;;;5010768;28;20034;-84
2021/09/25 12:22:28;;;;;;;2.83;2.50;;;21.70;99.90;;;;;;4994332;28;20468;-82
2021/09/25 12:24:55;;;;;;;2.90;2.60;;;21.70;99.90;;;;;;5029625;28;20034;-83
2021/09/25 12:27:27;;;;;;;3.15;2.85;;;21.70;99.90;;;;;;5035112;28;20029;-83
2021/09/25 12:29:53;;;;;;;3.08;2.78;;;21.70;99.90;;;;;;5016115;28;20045;-84
2021/09/25 12:32:21;;;;;;;5.55;2.80;;;21.60;99.90;;;;;;5020443;28;21097;-83
2021/09/25 12:34:51;;;;;;;2.83;2.38;;;21.60;99.90;;;;;;5027176;28;20105;-83
2021/09/25 12:37:17;;;;;;;3.33;2.50;;;21.50;99.90;;;;;;5015892;28;20415;-83
2021/09/25 12:39:44;;;;;;;3.25;2.65;;;21.50;99.90;;;;;;5030567;28;20685;-84
2021/09/25 12:42:25;;;;;;;2.42;2.22;;;21.40;99.90;;;;;;5012332;28;20064;-83
2021/09/25 12:44:59;;;;;;;2.83;2.53;;;21.50;99.90;;;;;;5027439;28;20168;-83
2021/09/25 12:47:33;;;;;;;2.83;2.50;;;21.40;99.90;;;;;;5033592;28;20033;-83